Česky Dansk Deutsch English Español Suomi Français Magyar Italiano Nederlands norsk Polski Português svenska Türkçe

 

Het Weer

Asyut (Egypt)

13:00, 21 augustus 2016 (GMT)

NWNNE
WE
SWSSE
Home            
Asyut El Tor Luxor Hurguada Cairo Airport Sharm El Sheikhintl Asswan Taba Alexandria / Nouzha Eilat Port Said Aqaba Airport Ovda Alexandria Borg El Arab El Arish Wejh Tabuk Ma'An Wadi Halfa Beer-Sheva Mersa Matruh Ben-Gurion International Airport Tel Aviv / Sde-Dov Airport

Om een weerknop op uw website of weblog te plaatsen, copieer onderstaande code en plak die in uw pagina. In het eerste vakje staat HTML-code, in het tweede vakje UBB-code.


Add to Google

Details

Wind speed:4 bf, 11 kn, 5.7 m/s, 12.7 miles/h, 20.4 km/h
Wind direction:NNE, 020°
Visibility:Greater than 10000 m, 10 km, 32800 ft, 6.2 miles
Clouds:CAVOC
Temperature:35°C, 95°F
Gefühlte Temperatur:33°C, 92°F
Dew-point:11°C, 52°F
Atmospheric pressure:1010 hPa, 757.6 mmHg, 29.83 inHg, 0.997 atm
Relative humidity:23.3 %
METAR:HEAT 211300Z 02011KT CAVOK 35/11 Q1010 NOSIG

Snelkoppelingen

Actuele weersinformatie van de hele wereld. Voeg locaties toe met het plus (+) symbool. Deze snelkoppelingen kunnen worden toegevoegd aan Google.

Lid van de Technetium groep

website free tracking
StatCounter NetStat W3C Validator

17-12-2017 04:47:11
astro.technetium.be money.technetium.be phote.technetium.be tafeltennistafel.technetium.be www.ligfiets.net